Time;durP1;ratioP1;P1;durP2;ratioP2;P2;SDS_P1;SDS_P2;PMS_P1;PMS_P2;Temp;Humidity;BMP_temperature;BMP_pressure;BME280_temperature;BME280_humidity;BME280_pressure;Samples;Min_cycle;Max_cycle;Signal;HPM_P1;HPM_P2
2023/07/29 00:00:27;;;;;;;5.20;1.52;;;17.60;99.90;;;;;;4957730;28;20035;-87
2023/07/29 00:02:53;;;;;;;5.32;1.40;;;17.60;99.90;;;;;;4960426;28;20070;-88
2023/07/29 00:05:19;;;;;;;9.73;1.48;;;17.60;99.90;;;;;;4967614;28;20020;-89
2023/07/29 00:07:44;;;;;;;5.70;1.48;;;17.60;99.90;;;;;;4960284;28;20380;-89
2023/07/29 00:10:10;;;;;;;5.22;1.60;;;17.60;99.90;;;;;;4960559;28;20074;-87
2023/07/29 00:12:36;;;;;;;7.15;1.60;;;17.50;99.90;;;;;;4962029;28;20424;-89
2023/07/29 00:15:01;;;;;;;6.88;1.50;;;17.50;99.90;;;;;;4968564;28;20035;-91
2023/07/29 00:17:27;;;;;;;7.35;1.38;;;17.50;99.90;;;;;;4954427;28;20024;-88
2023/07/29 00:19:52;;;;;;;6.53;1.63;;;17.60;99.90;;;;;;4965726;28;20026;-87
2023/07/29 00:22:18;;;;;;;4.75;1.25;;;17.50;99.90;;;;;;4988420;22;20049;-87
2023/07/29 00:24:44;;;;;;;5.70;1.50;;;17.50;99.90;;;;;;4971280;28;20118;-84
2023/07/29 00:27:09;;;;;;;9.98;1.90;;;17.60;99.90;;;;;;4963629;28;20023;-84
2023/07/29 00:29:35;;;;;;;7.38;1.48;;;17.60;99.90;;;;;;4969432;28;20043;-82
2023/07/29 00:32:00;;;;;;;10.35;2.08;;;17.60;99.90;;;;;;4953031;28;20023;-85
2023/07/29 00:34:26;;;;;;;8.98;2.20;;;17.60;99.90;;;;;;4951990;28;20614;-87
2023/07/29 00:36:52;;;;;;;5.50;1.90;;;17.60;99.90;;;;;;4950089;28;20023;-86
2023/07/29 00:39:19;;;;;;;4.28;1.65;;;17.60;99.90;;;;;;4956489;28;20054;-84
2023/07/29 00:41:44;;;;;;;5.40;1.45;;;17.60;99.90;;;;;;4949658;28;20109;-85
2023/07/29 00:44:10;;;;;;;9.32;1.85;;;17.50;99.90;;;;;;4950058;28;20050;-84
2023/07/29 00:46:38;;;;;;;5.97;1.45;;;17.50;99.90;;;;;;4950915;28;20030;-87
2023/07/29 00:49:03;;;;;;;13.43;2.60;;;17.50;99.90;;;;;;4950898;28;20035;-83
2023/07/29 00:51:29;;;;;;;7.32;2.15;;;17.50;99.90;;;;;;4950353;28;20476;-85
2023/07/29 00:53:55;;;;;;;6.85;1.50;;;17.50;99.90;;;;;;4958714;28;20396;-85
2023/07/29 00:56:21;;;;;;;6.85;2.08;;;17.50;99.90;;;;;;4951006;28;20027;-88
2023/07/29 00:58:46;;;;;;;9.75;2.15;;;17.50;99.90;;;;;;4951336;28;20034;-87
2023/07/29 01:01:12;;;;;;;8.23;2.13;;;17.50;99.90;;;;;;4958523;28;20387;-85
2023/07/29 01:03:38;;;;;;;6.65;2.00;;;17.40;99.90;;;;;;4950989;28;20031;-84
2023/07/29 01:06:09;;;;;;;7.18;1.98;;;17.40;99.90;;;;;;4950187;28;20035;-84
2023/07/29 01:08:50;;;;;;;5.18;2.00;;;17.40;99.90;;;;;;4950874;28;20094;-86
2023/07/29 01:11:53;;;;;;;9.07;2.22;;;17.40;99.90;;;;;;4950809;28;20027;-83
2023/07/29 01:14:48;;;;;;;7.72;1.90;;;17.40;99.90;;;;;;4949546;28;20035;-85
2023/07/29 01:17:21;;;;;;;15.45;2.55;;;17.30;99.90;;;;;;4941478;28;20563;-85
2023/07/29 01:19:53;;;;;;;7.30;2.33;;;17.30;99.90;;;;;;4949072;28;20033;-86
2023/07/29 01:22:20;;;;;;;6.88;1.92;;;17.30;99.90;;;;;;4943907;23;20048;-87
2023/07/29 01:24:46;;;;;;;11.55;2.17;;;17.30;99.90;;;;;;4924452;29;20032;-88
2023/07/29 01:27:11;;;;;;;11.90;2.05;;;17.30;99.90;;;;;;4918757;29;20074;-87
2023/07/29 01:29:37;;;;;;;6.85;2.00;;;17.30;99.90;;;;;;4921284;29;20095;-87
2023/07/29 01:32:17;;;;;;;9.48;2.60;;;17.30;99.90;;;;;;4918805;29;20127;-87
2023/07/29 01:34:53;;;;;;;5.43;2.10;;;17.30;99.90;;;;;;4929172;29;20733;-87
2023/07/29 01:37:25;;;;;;;7.60;2.25;;;17.30;99.90;;;;;;4918540;29;20087;-86
2023/07/29 01:39:56;;;;;;;10.55;2.33;;;17.30;99.90;;;;;;4924393;29;20031;-87
2023/07/29 01:42:22;;;;;;;7.63;2.55;;;17.20;99.90;;;;;;4915839;29;20102;-87
2023/07/29 01:44:48;;;;;;;8.00;2.63;;;17.20;99.90;;;;;;4918052;29;20028;-90
2023/07/29 01:47:14;;;;;;;8.15;2.53;;;17.20;99.90;;;;;;4913606;29;20024;-86
2023/07/29 01:49:39;;;;;;;6.22;2.20;;;17.20;99.90;;;;;;4923138;29;20047;-88
2023/07/29 01:52:05;;;;;;;5.93;2.42;;;17.20;99.90;;;;;;4924063;29;20751;-90
2023/07/29 01:54:31;;;;;;;12.45;2.70;;;17.10;99.90;;;;;;4925660;29;20091;-87
2023/07/29 01:56:56;;;;;;;9.18;2.60;;;17.10;99.90;;;;;;4920420;29;20028;-86
2023/07/29 01:59:22;;;;;;;10.98;2.63;;;17.10;99.90;;;;;;4926691;29;20404;-86
2023/07/29 02:01:48;;;;;;;10.35;2.53;;;17.20;99.90;;;;;;4929809;29;20492;-87
2023/07/29 02:04:14;;;;;;;8.35;2.45;;;17.20;99.90;;;;;;4919125;29;20153;-86
2023/07/29 02:06:40;;;;;;;8.52;2.10;;;17.20;99.90;;;;;;4919992;29;20189;-86
2023/07/29 02:09:05;;;;;;;9.32;2.90;;;17.30;99.90;;;;;;4925979;29;20036;-87
2023/07/29 02:11:31;;;;;;;6.82;2.05;;;17.30;99.90;;;;;;4926162;29;20027;-87
2023/07/29 02:13:57;;;;;;;10.30;2.97;;;17.30;99.90;;;;;;4920459;29;20032;-88
2023/07/29 02:16:23;;;;;;;10.68;2.70;;;17.30;99.90;;;;;;4926726;29;20102;-86
2023/07/29 02:18:52;;;;;;;13.50;2.55;;;17.40;99.90;;;;;;4929202;29;20024;-86
2023/07/29 02:21:17;;;;;;;6.22;2.30;;;17.40;99.90;;;;;;4952423;23;20636;-85
2023/07/29 02:23:43;;;;;;;8.23;3.22;;;17.40;99.90;;;;;;4935177;29;20038;-88
2023/07/29 02:26:08;;;;;;;8.70;2.83;;;17.40;99.90;;;;;;4956583;28;20023;-87
2023/07/29 02:28:34;;;;;;;9.75;3.08;;;17.40;99.90;;;;;;4953508;28;20040;-86
2023/07/29 02:31:23;;;;;;;11.35;2.63;;;17.40;99.90;;;;;;4946247;28;20031;-87
2023/07/29 02:33:49;;;;;;;8.52;2.78;;;17.40;99.90;;;;;;4927033;29;20028;-85
2023/07/29 02:36:16;;;;;;;16.95;2.38;;;17.40;99.90;;;;;;4945064;28;20424;-84
2023/07/29 02:38:42;;;;;;;9.15;3.00;;;17.40;99.90;;;;;;4930000;29;20027;-85
2023/07/29 02:41:12;;;;;;;7.75;2.95;;;17.40;99.90;;;;;;4934385;29;20404;-87
2023/07/29 02:43:39;;;;;;;9.30;2.80;;;17.40;99.90;;;;;;4931336;29;20031;-87
2023/07/29 02:46:04;;;;;;;10.68;2.88;;;17.30;99.90;;;;;;4944670;28;20023;-84
2023/07/29 02:48:30;;;;;;;9.57;2.67;;;17.40;99.90;;;;;;4928906;29;20039;-85
2023/07/29 02:50:56;;;;;;;9.90;2.25;;;17.40;99.90;;;;;;4944643;28;20112;-86
2023/07/29 02:53:22;;;;;;;10.65;2.72;;;17.40;99.90;;;;;;4936888;29;20035;-84
2023/07/29 02:55:48;;;;;;;6.18;2.00;;;17.40;99.90;;;;;;4934005;29;20059;-84
2023/07/29 02:58:14;;;;;;;11.00;2.65;;;17.30;99.90;;;;;;4934269;29;20436;-86
2023/07/29 03:00:43;;;;;;;9.30;2.35;;;17.20;99.90;;;;;;4949141;28;20122;-83
2023/07/29 03:03:09;;;;;;;9.90;2.67;;;17.30;99.90;;;;;;4941085;29;20036;-85
2023/07/29 03:05:35;;;;;;;7.57;2.17;;;17.30;99.90;;;;;;4941836;28;20030;-84
2023/07/29 03:08:01;;;;;;;10.68;2.72;;;17.20;99.90;;;;;;4936217;28;20027;-85
2023/07/29 03:10:27;;;;;;;12.35;3.13;;;17.20;99.90;;;;;;4934297;29;20373;-85
2023/07/29 03:12:56;;;;;;;7.03;2.47;;;17.20;99.90;;;;;;4939749;29;20759;-85
2023/07/29 03:15:24;;;;;;;10.23;2.55;;;17.20;99.90;;;;;;4939950;29;20028;-85
2023/07/29 03:17:51;;;;;;;9.80;2.80;;;17.20;99.90;;;;;;4933873;28;20027;-87
2023/07/29 03:22:48;;;;;;;6.07;1.80;;;17.00;99.90;;;;;;4969909;28;20812;-87
2023/07/29 03:25:14;;;;;;;10.18;2.60;;;17.00;99.90;;;;;;4970997;28;20027;-87
2023/07/29 03:27:40;;;;;;;8.27;2.60;;;17.00;99.90;;;;;;4976239;28;20117;-87
2023/07/29 03:30:07;;;;;;;5.78;3.28;;;16.90;99.90;;;;;;4972793;28;20043;-87
2023/07/29 03:32:33;;;;;;;6.10;2.58;;;16.90;99.90;;;;;;4971948;28;20027;-87
2023/07/29 03:34:58;;;;;;;14.93;3.28;;;16.90;99.90;;;;;;4972953;28;20040;-88
2023/07/29 03:37:24;;;;;;;11.02;2.80;;;16.90;99.90;;;;;;4975769;28;20061;-89
2023/07/29 03:39:51;;;;;;;11.88;3.40;;;16.90;99.90;;;;;;4972302;28;20041;-88
2023/07/29 03:42:17;;;;;;;21.52;4.47;;;16.90;99.90;;;;;;4971928;28;20030;-87
2023/07/29 03:44:43;;;;;;;12.40;3.00;;;16.80;99.90;;;;;;4974255;28;20031;-89
2023/07/29 03:47:09;;;;;;;7.63;2.85;;;16.80;99.90;;;;;;4970731;28;20093;-88
2023/07/29 03:49:34;;;;;;;9.15;3.30;;;16.80;99.90;;;;;;4970632;28;20035;-89
2023/07/29 03:52:00;;;;;;;10.68;3.60;;;16.80;99.90;;;;;;4967729;28;20039;-87
2023/07/29 03:54:26;;;;;;;17.35;3.58;;;16.80;99.90;;;;;;4971559;28;20369;-87
2023/07/29 03:56:51;;;;;;;10.02;3.03;;;16.80;99.90;;;;;;4971561;28;20030;-87
2023/07/29 03:59:17;;;;;;;13.15;3.10;;;16.80;99.90;;;;;;4979812;28;20062;-87
2023/07/29 04:01:43;;;;;;;7.43;2.20;;;16.80;99.90;;;;;;4970655;28;20807;-88
2023/07/29 04:04:09;;;;;;;7.72;3.03;;;16.80;99.90;;;;;;4971704;28;20025;-89
2023/07/29 04:06:34;;;;;;;8.75;2.47;;;16.90;99.90;;;;;;4976055;28;20030;-86
2023/07/29 04:09:00;;;;;;;7.90;2.50;;;16.90;99.90;;;;;;4978893;28;20741;-89
2023/07/29 04:11:26;;;;;;;7.93;2.65;;;16.80;99.90;;;;;;4967110;28;20030;-88
2023/07/29 04:13:52;;;;;;;11.45;2.45;;;16.80;99.90;;;;;;4967618;28;20390;-89
2023/07/29 04:16:17;;;;;;;9.63;2.63;;;16.80;99.90;;;;;;4973285;28;20089;-89
2023/07/29 04:18:43;;;;;;;10.00;2.55;;;16.80;99.90;;;;;;4972083;28;20398;-89
2023/07/29 04:21:09;;;;;;;6.80;2.30;;;16.90;99.90;;;;;;4990668;23;20043;-86
2023/07/29 04:23:35;;;;;;;5.20;2.25;;;16.90;99.90;;;;;;4968964;28;20038;-85
2023/07/29 04:26:00;;;;;;;6.82;2.42;;;16.90;99.90;;;;;;4978228;28;20133;-86
2023/07/29 04:28:26;;;;;;;8.30;2.78;;;16.90;99.90;;;;;;4980492;28;20391;-84
2023/07/29 04:30:52;;;;;;;12.57;3.20;;;16.90;99.90;;;;;;4964747;28;20027;-82
2023/07/29 04:33:17;;;;;;;7.25;2.90;;;16.90;99.90;;;;;;4950693;28;20027;-85
2023/07/29 04:35:44;;;;;;;4.13;2.60;;;16.80;99.90;;;;;;4949154;28;20036;-86
2023/07/29 04:38:09;;;;;;;5.55;2.40;;;16.90;99.90;;;;;;4949114;28;20067;-86
2023/07/29 04:40:35;;;;;;;7.38;2.58;;;16.90;99.90;;;;;;4954306;28;20504;-84
2023/07/29 04:43:01;;;;;;;8.50;2.58;;;16.90;99.90;;;;;;4951318;28;20027;-86
2023/07/29 04:45:30;;;;;;;8.00;2.78;;;16.90;99.90;;;;;;4951152;28;20019;-86
2023/07/29 04:47:56;;;;;;;6.90;2.78;;;16.90;99.90;;;;;;4950782;28;20749;-86
2023/07/29 04:50:22;;;;;;;4.55;2.25;;;16.90;99.90;;;;;;4949398;28;20392;-86
2023/07/29 04:52:48;;;;;;;5.90;2.33;;;16.90;99.90;;;;;;4951013;28;20023;-85
2023/07/29 04:55:13;;;;;;;6.20;2.40;;;17.00;99.90;;;;;;4949399;28;20686;-83
2023/07/29 04:57:39;;;;;;;4.35;2.30;;;17.00;99.90;;;;;;4950734;28;20617;-85
2023/07/29 05:00:05;;;;;;;5.75;2.47;;;17.00;99.90;;;;;;4950325;28;20031;-85
2023/07/29 05:02:31;;;;;;;4.78;2.53;;;17.10;99.90;;;;;;4950240;28;20027;-85
2023/07/29 05:04:57;;;;;;;3.47;2.35;;;17.00;99.90;;;;;;4950527;28;20488;-86
2023/07/29 05:07:22;;;;;;;6.07;2.03;;;17.10;99.90;;;;;;4950637;28;20404;-84
2023/07/29 05:09:48;;;;;;;6.05;2.10;;;17.10;99.90;;;;;;4950346;28;20423;-85
2023/07/29 05:12:14;;;;;;;5.40;2.20;;;17.20;99.90;;;;;;4955706;28;20166;-85
2023/07/29 05:14:39;;;;;;;4.03;2.28;;;17.10;99.90;;;;;;4950726;28;20443;-86
2023/07/29 05:17:05;;;;;;;4.70;2.33;;;17.20;99.90;;;;;;4952000;28;20027;-85
2023/07/29 05:19:31;;;;;;;8.88;2.58;;;17.20;99.90;;;;;;4950124;28;20031;-84
2023/07/29 05:21:57;;;;;;;2.80;1.83;;;17.20;99.90;;;;;;4968484;23;20039;-92
2023/07/29 05:24:23;;;;;;;3.75;1.90;;;17.10;99.90;;;;;;4950589;29;20054;-90
2023/07/29 05:26:49;;;;;;;5.90;1.88;;;17.20;99.90;;;;;;4951289;29;20093;-89
2023/07/29 05:29:15;;;;;;;3.88;2.10;;;17.10;99.90;;;;;;4953169;29;20078;-88
2023/07/29 05:31:40;;;;;;;9.98;2.55;;;17.20;99.90;;;;;;4951721;28;20690;-88
2023/07/29 05:34:06;;;;;;;3.78;2.40;;;17.10;99.90;;;;;;4948863;29;20054;-89
2023/07/29 05:36:31;;;;;;;7.45;1.80;;;17.10;99.90;;;;;;4951162;28;20023;-88
2023/07/29 05:38:57;;;;;;;4.88;2.08;;;17.00;99.90;;;;;;4951303;29;20026;-90
2023/07/29 05:41:23;;;;;;;7.55;2.00;;;17.00;99.90;;;;;;4951644;28;20037;-89
2023/07/29 05:43:48;;;;;;;5.00;2.25;;;17.00;99.90;;;;;;4952138;29;20105;-90
2023/07/29 05:46:14;;;;;;;2.88;2.28;;;17.00;99.90;;;;;;4952398;29;20031;-90
2023/07/29 05:48:40;;;;;;;7.63;3.00;;;16.90;99.90;;;;;;4951849;29;20055;-89
2023/07/29 05:51:06;;;;;;;10.20;3.00;;;16.90;99.90;;;;;;4947065;28;20501;-87
2023/07/29 05:53:31;;;;;;;7.15;2.83;;;17.00;99.90;;;;;;4952694;29;20102;-89
2023/07/29 05:55:57;;;;;;;6.70;3.08;;;17.00;99.90;;;;;;4952689;29;20028;-92
2023/07/29 05:58:23;;;;;;;5.55;2.88;;;17.00;99.90;;;;;;4952107;29;20027;-88
2023/07/29 06:00:48;;;;;;;8.45;2.88;;;17.10;99.90;;;;;;4950637;28;20480;-90
2023/07/29 06:03:14;;;;;;;9.48;2.88;;;17.10;99.90;;;;;;4952634;29;20039;-91
2023/07/29 06:05:39;;;;;;;8.10;2.70;;;17.10;99.90;;;;;;4951177;28;20063;-89
2023/07/29 06:08:05;;;;;;;5.53;3.00;;;17.20;99.90;;;;;;4949436;29;20050;-88
2023/07/29 06:10:31;;;;;;;7.00;2.60;;;17.30;99.90;;;;;;4949712;28;20044;-88
2023/07/29 06:12:56;;;;;;;10.60;3.22;;;17.40;99.90;;;;;;4951337;29;20106;-91
2023/07/29 06:15:22;;;;;;;9.02;2.75;;;17.40;99.90;;;;;;4950135;29;20113;-89
2023/07/29 06:17:49;;;;;;;6.45;2.75;;;17.50;99.90;;;;;;4949414;29;20027;-89
2023/07/29 06:20:14;;;;;;;8.43;2.10;;;17.60;99.90;;;;;;4950204;29;20453;-92
2023/07/29 06:22:41;;;;;;;4.03;2.28;;;17.60;99.90;;;;;;4944641;23;20039;-83
2023/07/29 06:25:08;;;;;;;10.88;3.53;;;17.70;99.90;;;;;;4927529;29;20023;-83
2023/07/29 06:27:33;;;;;;;7.75;2.38;;;17.70;99.90;;;;;;4928243;29;20394;-84
2023/07/29 06:29:59;;;;;;;5.18;2.80;;;17.70;99.90;;;;;;4930050;29;20039;-81
2023/07/29 06:32:24;;;;;;;7.13;2.15;;;17.70;99.90;;;;;;4932482;29;20071;-82
2023/07/29 06:34:51;;;;;;;5.47;1.83;;;17.70;99.90;;;;;;4932135;29;20044;-83
2023/07/29 06:37:17;;;;;;;7.30;1.95;;;17.70;99.90;;;;;;4932309;29;20024;-82
2023/07/29 06:39:43;;;;;;;6.65;2.47;;;17.80;99.90;;;;;;4932145;29;20035;-84
2023/07/29 06:42:08;;;;;;;10.30;2.22;;;17.80;99.90;;;;;;4932966;29;20032;-85
2023/07/29 06:44:34;;;;;;;2.70;1.90;;;17.80;99.90;;;;;;4947082;28;20059;-83
2023/07/29 06:46:59;;;;;;;7.15;2.10;;;17.80;99.90;;;;;;4932131;29;20388;-83
2023/07/29 06:49:25;;;;;;;5.40;2.47;;;17.70;99.90;;;;;;4931792;29;20038;-85
2023/07/29 06:51:51;;;;;;;6.90;2.65;;;17.70;99.90;;;;;;4931858;29;20429;-85
2023/07/29 06:54:17;;;;;;;7.68;2.67;;;17.80;99.90;;;;;;4931986;29;20031;-85
2023/07/29 06:56:43;;;;;;;4.25;2.28;;;17.80;99.90;;;;;;4930905;29;20361;-85
2023/07/29 06:59:08;;;;;;;4.70;2.22;;;18.00;99.90;;;;;;4932681;29;20083;-84
2023/07/29 07:01:34;;;;;;;5.03;2.03;;;18.20;99.90;;;;;;4931945;29;20583;-84
2023/07/29 07:04:00;;;;;;;9.13;2.58;;;18.40;99.90;;;;;;4931385;29;20050;-86
2023/07/29 07:06:26;;;;;;;12.68;2.65;;;18.40;99.90;;;;;;4927378;29;20131;-84
2023/07/29 07:08:51;;;;;;;4.05;1.85;;;18.40;99.90;;;;;;4947065;28;20439;-85
2023/07/29 07:11:18;;;;;;;9.40;2.55;;;18.50;99.90;;;;;;4947240;28;20079;-85
2023/07/29 07:13:44;;;;;;;4.57;2.20;;;18.40;99.90;;;;;;4932568;29;20023;-84
2023/07/29 07:16:09;;;;;;;7.20;2.90;;;18.40;99.90;;;;;;4932129;29;20035;-85
2023/07/29 07:18:35;;;;;;;9.15;3.05;;;18.40;99.90;;;;;;4932093;29;20097;-83
2023/07/29 07:21:01;;;;;;;9.10;2.40;;;18.40;99.90;;;;;;4946432;23;20040;-87
2023/07/29 07:23:26;;;;;;;8.77;2.30;;;18.40;99.90;;;;;;4943085;28;20032;-86
2023/07/29 07:25:52;;;;;;;8.63;2.25;;;18.40;99.90;;;;;;4931880;29;20095;-87
2023/07/29 07:28:18;;;;;;;6.55;2.53;;;18.50;99.90;;;;;;4932077;29;20043;-88
2023/07/29 07:30:43;;;;;;;8.05;1.70;;;18.50;99.90;;;;;;4946606;28;20040;-85
2023/07/29 07:33:09;;;;;;;7.72;2.33;;;18.60;99.90;;;;;;4946276;28;20031;-85
2023/07/29 07:35:35;;;;;;;8.50;2.05;;;18.80;99.90;;;;;;4932111;29;20085;-85
2023/07/29 07:38:03;;;;;;;6.20;2.33;;;19.00;99.90;;;;;;4931440;29;20034;-85
2023/07/29 07:40:32;;;;;;;4.93;2.20;;;19.20;99.90;;;;;;4930458;29;20026;-86
2023/07/29 07:42:58;;;;;;;8.35;2.35;;;19.30;99.90;;;;;;4927177;29;20039;-86
2023/07/29 07:45:24;;;;;;;9.88;2.08;;;19.30;99.90;;;;;;4933254;29;20393;-86
2023/07/29 07:47:52;;;;;;;9.93;2.65;;;19.40;99.90;;;;;;4913075;29;20660;-85
2023/07/29 07:50:18;;;;;;;10.98;3.00;;;19.30;99.80;;;;;;4909706;29;20542;-84
2023/07/29 07:52:44;;;;;;;8.48;1.98;;;19.10;99.50;;;;;;4912309;29;20119;-85
2023/07/29 07:55:09;;;;;;;5.30;1.70;;;19.00;99.80;;;;;;4915655;29;20056;-86
2023/07/29 07:57:35;;;;;;;6.93;1.70;;;18.80;98.20;;;;;;4940787;29;20024;-85
2023/07/29 08:00:01;;;;;;;9.05;2.13;;;18.70;97.10;;;;;;4909599;29;20062;-87
2023/07/29 08:02:26;;;;;;;7.72;1.98;;;18.50;96.20;;;;;;4921988;29;20024;-87
2023/07/29 08:04:52;;;;;;;9.13;1.67;;;18.40;97.00;;;;;;4927778;29;20039;-85
2023/07/29 08:07:17;;;;;;;7.95;2.03;;;18.40;96.40;;;;;;4929563;29;20031;-88
2023/07/29 08:09:43;;;;;;;5.38;2.45;;;18.40;96.80;;;;;;4931117;29;20134;-88
2023/07/29 08:12:09;;;;;;;7.53;1.80;;;18.40;97.60;;;;;;4931688;28;20024;-89
2023/07/29 08:14:35;;;;;;;12.30;2.72;;;18.30;97.10;;;;;;4913070;29;20036;-92
2023/07/29 08:17:01;;;;;;;5.22;1.58;;;18.40;97.40;;;;;;4911645;29;20023;-92
2023/07/29 08:19:27;;;;;;;3.92;1.42;;;18.40;96.50;;;;;;4939072;29;20027;-85
2023/07/29 08:21:52;;;;;;;5.47;2.25;;;18.40;96.80;;;;;;4978346;22;20043;-84
2023/07/29 08:24:18;;;;;;;7.18;2.42;;;18.50;96.90;;;;;;4962103;28;20023;-85
2023/07/29 08:26:44;;;;;;;6.93;1.90;;;18.60;97.60;;;;;;4960528;28;20027;-83
2023/07/29 08:29:09;;;;;;;9.80;2.60;;;18.80;97.40;;;;;;4955236;28;20472;-83
2023/07/29 08:31:35;;;;;;;8.68;2.10;;;19.00;96.80;;;;;;4948219;28;20658;-85
2023/07/29 08:34:01;;;;;;;5.28;1.60;;;19.30;95.70;;;;;;4936009;29;20031;-84
2023/07/29 08:36:26;;;;;;;4.72;1.70;;;19.60;95.10;;;;;;4935926;29;20031;-84
2023/07/29 08:38:52;;;;;;;4.68;1.90;;;19.70;93.80;;;;;;4938672;29;20019;-87
2023/07/29 08:41:36;;;;;;;5.88;1.80;;;20.10;94.40;;;;;;4938896;28;20381;-85
2023/07/29 08:44:09;;;;;;;5.38;1.98;;;20.20;92.80;;;;;;4946134;29;20411;-85
2023/07/29 08:46:36;;;;;;;7.47;1.63;;;20.30;94.30;;;;;;4934637;29;20023;-83
2023/07/29 08:49:02;;;;;;;7.80;1.50;;;20.30;94.30;;;;;;4930820;29;20032;-83
2023/07/29 08:51:31;;;;;;;12.98;2.33;;;20.60;93.40;;;;;;4933051;29;20031;-85
2023/07/29 08:53:58;;;;;;;10.27;2.88;;;20.90;93.40;;;;;;4933576;29;20032;-83
2023/07/29 08:56:24;;;;;;;4.22;1.52;;;21.20;92.00;;;;;;4934311;29;20035;-85
2023/07/29 08:58:50;;;;;;;4.45;1.98;;;21.60;91.60;;;;;;4942441;28;20024;-85
2023/07/29 09:01:16;;;;;;;12.43;2.55;;;22.20;90.80;;;;;;4933138;29;20034;-83
2023/07/29 09:03:42;;;;;;;18.08;2.00;;;22.80;86.90;;;;;;4935054;29;20024;-84
2023/07/29 09:06:08;;;;;;;6.00;1.90;;;23.30;85.80;;;;;;4936771;29;20487;-85
2023/07/29 09:08:34;;;;;;;8.00;2.10;;;23.40;84.90;;;;;;4944539;28;20035;-87
2023/07/29 09:11:00;;;;;;;7.18;1.98;;;23.50;82.40;;;;;;4933663;29;20034;-84
2023/07/29 09:13:26;;;;;;;6.80;1.80;;;23.90;81.10;;;;;;4937207;29;20051;-84
2023/07/29 09:15:57;;;;;;;15.95;2.42;;;23.50;82.80;;;;;;4936551;28;20063;-86
2023/07/29 09:18:25;;;;;;;9.50;2.20;;;23.40;82.10;;;;;;4934598;29;20110;-84
2023/07/29 09:20:51;;;;;;;6.25;2.20;;;23.40;83.30;;;;;;4956628;23;20036;-90
2023/07/29 09:23:16;;;;;;;10.15;2.03;;;23.70;84.90;;;;;;4971486;28;20031;-93
2023/07/29 09:25:42;;;;;;;6.00;1.88;;;23.30;82.70;;;;;;4966336;28;20022;-89
2023/07/29 09:28:13;;;;;;;6.75;1.90;;;23.40;81.60;;;;;;4948375;28;20383;-90
2023/07/29 09:30:42;;;;;;;7.22;2.50;;;23.30;79.00;;;;;;4966815;28;20062;-91
2023/07/29 09:33:09;;;;;;;8.63;2.28;;;23.20;82.30;;;;;;4957278;28;20079;-92
2023/07/29 09:35:36;;;;;;;11.13;2.00;;;23.90;80.40;;;;;;4972884;28;20507;-94
2023/07/29 09:38:04;;;;;;;8.60;2.45;;;24.20;76.80;;;;;;4963714;28;20019;-92
2023/07/29 09:40:39;;;;;;;6.28;1.83;;;24.40;75.60;;;;;;4966157;28;20029;-93
2023/07/29 09:43:06;;;;;;;7.18;1.67;;;25.10;74.90;;;;;;4973965;28;20062;-91
2023/07/29 09:45:35;;;;;;;6.18;1.60;;;25.60;74.40;;;;;;4965172;28;20023;-94
2023/07/29 09:48:01;;;;;;;6.88;2.25;;;25.80;71.00;;;;;;4961934;28;20082;-94
2023/07/29 09:50:27;;;;;;;8.00;1.73;;;26.10;69.50;;;;;;4977253;28;20031;-93
2023/07/29 09:52:55;;;;;;;7.53;2.08;;;26.30;67.30;;;;;;4974003;28;20022;-91
2023/07/29 09:55:25;;;;;;;8.43;2.10;;;26.20;66.20;;;;;;4976148;28;20027;-94
2023/07/29 09:58:01;;;;;;;6.70;1.60;;;26.20;68.20;;;;;;4962491;28;20018;-91
2023/07/29 10:00:31;;;;;;;12.52;2.35;;;26.60;66.70;;;;;;4969813;28;20033;-92
2023/07/29 10:02:58;;;;;;;7.20;1.90;;;27.40;66.10;;;;;;4971797;28;20066;-93
2023/07/29 10:05:27;;;;;;;7.63;2.10;;;27.20;60.70;;;;;;4974557;28;20098;-92
2023/07/29 10:07:54;;;;;;;7.38;2.05;;;26.70;61.00;;;;;;4967967;28;20034;-95
2023/07/29 10:10:20;;;;;;;10.02;2.53;;;26.50;63.30;;;;;;4966128;28;20038;-92
2023/07/29 10:12:46;;;;;;;9.77;2.13;;;26.20;65.50;;;;;;4976526;28;20506;-92
2023/07/29 10:15:12;;;;;;;7.07;2.33;;;26.40;65.10;;;;;;4961325;28;20036;-92
2023/07/29 10:17:39;;;;;;;12.73;2.88;;;27.10;64.20;;;;;;4960319;28;20020;-90
2023/07/29 10:20:07;;;;;;;8.18;2.45;;;27.20;62.00;;;;;;4973023;28;20468;-93
2023/07/29 10:22:55;;;;;;;7.90;2.35;;;26.90;61.00;;;;;;4978246;23;20043;-87
2023/07/29 10:25:24;;;;;;;7.95;2.58;;;26.60;64.40;;;;;;4961289;28;20102;-90
2023/07/29 10:27:58;;;;;;;9.18;1.85;;;26.40;65.50;;;;;;4954599;28;20027;-89
2023/07/29 10:30:25;;;;;;;11.65;2.47;;;26.70;63.80;;;;;;4943829;28;20039;-87
2023/07/29 10:32:53;;;;;;;5.82;2.28;;;27.60;61.60;;;;;;4939736;29;20071;-86
2023/07/29 10:35:18;;;;;;;14.63;3.25;;;28.00;61.00;;;;;;4927086;29;20028;-89
2023/07/29 10:37:45;;;;;;;10.13;2.67;;;28.60;59.20;;;;;;4934950;29;20034;-89
2023/07/29 10:40:11;;;;;;;9.23;2.00;;;28.40;56.80;;;;;;4938933;29;20031;-89
2023/07/29 10:42:38;;;;;;;11.93;2.65;;;28.70;57.20;;;;;;4916085;29;20131;-88
2023/07/29 10:45:20;;;;;;;10.07;2.35;;;28.70;57.30;;;;;;4936801;29;20132;-88
2023/07/29 10:47:47;;;;;;;7.72;2.33;;;29.70;57.90;;;;;;4933468;29;20027;-89
2023/07/29 10:50:21;;;;;;;7.97;2.15;;;30.10;53.30;;;;;;4932440;29;20733;-87
2023/07/29 10:52:51;;;;;;;13.50;2.42;;;29.90;53.00;;;;;;4932576;29;20039;-88
2023/07/29 10:55:26;;;;;;;8.57;2.65;;;29.80;53.20;;;;;;4936558;29;20059;-88
2023/07/29 10:57:52;;;;;;;10.48;2.15;;;29.70;53.20;;;;;;4917723;29;20035;-88
2023/07/29 11:00:22;;;;;;;8.93;2.83;;;29.30;52.80;;;;;;4940834;29;20030;-87
2023/07/29 11:03:03;;;;;;;10.88;2.00;;;29.30;52.00;;;;;;4941569;29;20031;-91
2023/07/29 11:05:46;;;;;;;9.97;2.70;;;29.20;54.00;;;;;;4929763;29;20087;-88
2023/07/29 11:08:21;;;;;;;12.57;2.42;;;29.10;53.00;;;;;;4929631;29;20024;-89
2023/07/29 11:11:04;;;;;;;13.43;2.88;;;29.20;53.50;;;;;;4928426;29;20027;-90
2023/07/29 11:13:31;;;;;;;7.05;2.42;;;30.30;55.80;;;;;;4941389;29;20499;-89
2023/07/29 11:15:58;;;;;;;7.18;2.20;;;30.30;53.00;;;;;;4919879;29;20039;-88
2023/07/29 11:18:44;;;;;;;7.57;2.53;;;29.70;50.10;;;;;;4928038;29;20023;-89
2023/07/29 11:21:09;;;;;;;8.10;2.70;;;29.40;52.60;;;;;;4942071;23;20040;-91
2023/07/29 11:23:37;;;;;;;11.23;2.30;;;30.00;52.90;;;;;;4938109;29;20491;-91
2023/07/29 11:26:04;;;;;;;10.40;2.75;;;29.80;52.40;;;;;;4937277;29;20050;-91
2023/07/29 11:28:30;;;;;;;10.30;2.78;;;30.30;52.20;;;;;;4927418;29;20027;-90
2023/07/29 11:30:57;;;;;;;19.08;2.85;;;30.60;50.70;;;;;;4933613;29;20036;-88
2023/07/29 11:33:25;;;;;;;7.55;2.50;;;30.40;50.40;;;;;;4924630;29;20023;-93
2023/07/29 11:35:51;;;;;;;10.18;2.80;;;29.80;50.00;;;;;;4924483;29;20092;-91
2023/07/29 11:38:19;;;;;;;9.30;2.03;;;29.60;51.60;;;;;;4935201;29;20060;-90
2023/07/29 11:41:00;;;;;;;10.55;2.70;;;29.50;49.90;;;;;;4927185;29;20029;-93
2023/07/29 11:43:26;;;;;;;8.35;2.33;;;29.60;51.20;;;;;;4922517;29;20035;-93
2023/07/29 11:45:53;;;;;;;10.32;3.17;;;29.70;50.40;;;;;;4924572;29;20024;-92
2023/07/29 11:48:26;;;;;;;11.45;2.47;;;29.60;52.30;;;;;;4926064;29;20021;-90
2023/07/29 11:50:53;;;;;;;9.13;2.55;;;29.10;54.20;;;;;;4937433;29;20044;-87
2023/07/29 11:53:19;;;;;;;6.93;2.60;;;29.60;52.30;;;;;;4928655;29;20020;-92
2023/07/29 11:55:44;;;;;;;11.18;2.53;;;29.30;53.00;;;;;;4923891;29;20067;-90
2023/07/29 11:58:10;;;;;;;13.75;2.92;;;29.90;53.20;;;;;;4933514;29;20474;-94
2023/07/29 12:00:37;;;;;;;13.30;2.63;;;29.60;52.90;;;;;;4932343;29;20028;-86
2023/07/29 12:03:03;;;;;;;10.88;2.30;;;30.00;53.20;;;;;;4928638;29;20429;-88
2023/07/29 12:05:30;;;;;;;10.00;2.72;;;30.10;53.00;;;;;;4924567;29;20020;-87
2023/07/29 12:07:55;;;;;;;6.25;2.00;;;30.80;52.30;;;;;;4925775;29;20026;-89
2023/07/29 12:10:21;;;;;;;7.85;2.90;;;30.90;49.20;;;;;;4919908;29;20114;-90
2023/07/29 12:12:49;;;;;;;6.38;2.08;;;30.70;51.10;;;;;;4931623;29;20024;-88
2023/07/29 12:15:24;;;;;;;10.93;2.55;;;30.30;49.60;;;;;;4919062;29;20457;-92
2023/07/29 12:17:54;;;;;;;9.40;2.90;;;29.80;52.30;;;;;;4935068;29;20051;-87
2023/07/29 12:20:20;;;;;;;7.15;2.20;;;29.80;50.70;;;;;;4934854;29;20046;-89
2023/07/29 12:22:55;;;;;;;8.00;2.17;;;29.10;50.90;;;;;;4978297;23;20043;-83
2023/07/29 12:25:21;;;;;;;10.13;2.50;;;29.40;51.80;;;;;;4980796;28;20050;-81
2023/07/29 12:27:47;;;;;;;13.98;2.83;;;29.40;50.90;;;;;;4978974;28;20030;-85
2023/07/29 12:30:13;;;;;;;10.90;2.50;;;29.30;53.10;;;;;;4974063;28;20122;-82
2023/07/29 12:32:45;;;;;;;11.80;2.53;;;29.00;52.60;;;;;;4957958;28;20155;-85
2023/07/29 12:35:11;;;;;;;13.07;3.15;;;29.40;51.30;;;;;;4953515;28;20031;-83
2023/07/29 12:37:38;;;;;;;8.45;2.15;;;29.70;52.90;;;;;;4954632;28;20089;-84
2023/07/29 12:40:04;;;;;;;7.70;2.55;;;29.80;51.00;;;;;;4954612;28;20027;-82
2023/07/29 12:42:30;;;;;;;6.43;2.38;;;29.10;49.90;;;;;;4953223;28;20027;-84
2023/07/29 12:44:56;;;;;;;10.18;2.45;;;29.20;50.70;;;;;;4954646;28;20082;-83